createdAt,value
2023-04-04T00:00:18.033Z,55.30
2023-04-04T00:02:44.741Z,55.30
2023-04-04T00:05:11.469Z,55.30
2023-04-04T00:07:38.117Z,55.30
2023-04-04T00:10:05.003Z,55.30
2023-04-04T00:12:31.627Z,55.20
2023-04-04T00:15:01.355Z,54.80
2023-04-04T00:17:28.015Z,54.70
2023-04-04T00:19:54.601Z,55.40
2023-04-04T00:22:21.207Z,55.30
2023-04-04T00:24:48.777Z,55.30
2023-04-04T00:27:15.472Z,55.30
2023-04-04T00:29:42.150Z,55.30
2023-04-04T00:32:08.784Z,55.20
2023-04-04T00:34:36.314Z,55.20
2023-04-04T00:37:03.114Z,55.20
2023-04-04T00:39:29.797Z,55.20
2023-04-04T00:41:57.140Z,55.20
2023-04-04T00:44:23.791Z,55.20
2023-04-04T00:46:52.182Z,55.30
2023-04-04T00:49:18.790Z,55.20
2023-04-04T00:51:46.060Z,55.20
2023-04-04T00:54:12.815Z,55.20
2023-04-04T00:56:39.858Z,54.70
2023-04-04T00:59:07.724Z,55.20
2023-04-04T01:01:35.612Z,55.20
2023-04-04T01:04:03.107Z,55.20
2023-04-04T01:06:32.597Z,55.20
2023-04-04T01:08:59.707Z,55.10
2023-04-04T01:11:28.006Z,55.20
2023-04-04T01:13:54.965Z,55.20
2023-04-04T01:16:22.097Z,54.70
2023-04-04T01:18:50.856Z,55.20
2023-04-04T01:21:21.536Z,55.10
2023-04-04T01:24:04.344Z,55.20
2023-04-04T01:26:31.636Z,55.10
2023-04-04T01:28:59.419Z,55.10
2023-04-04T01:31:37.229Z,55.20
2023-04-04T01:34:41.119Z,55.10
2023-04-04T01:37:19.052Z,55.10
2023-04-04T01:39:56.226Z,55.20
2023-04-04T01:42:23.349Z,55.10
2023-04-04T01:44:56.172Z,55.20
2023-04-04T01:47:23.615Z,55.10
2023-04-04T01:49:50.385Z,55.10
2023-04-04T01:52:16.995Z,55.00
2023-04-04T01:54:43.661Z,55.00
2023-04-04T01:57:10.280Z,55.00
2023-04-04T01:59:36.942Z,55.00
2023-04-04T02:02:03.523Z,55.00
2023-04-04T02:04:30.631Z,55.00
2023-04-04T02:06:57.307Z,55.00
2023-04-04T02:09:24.054Z,55.00
2023-04-04T02:11:50.676Z,55.00
2023-04-04T02:14:17.299Z,55.00
2023-04-04T02:16:43.964Z,55.00
2023-04-04T02:19:10.990Z,54.80
2023-04-04T02:21:37.585Z,54.80
2023-04-04T02:24:04.511Z,54.80
2023-04-04T02:26:31.393Z,54.80
2023-04-04T02:28:57.989Z,54.80
2023-04-04T02:31:24.632Z,54.80
2023-04-04T02:33:51.240Z,54.80
2023-04-04T02:36:17.807Z,54.30
2023-04-04T02:38:44.479Z,54.80
2023-04-04T02:41:11.418Z,54.70
2023-04-04T02:43:38.068Z,54.80
2023-04-04T02:46:14.334Z,54.10
2023-04-04T02:48:47.477Z,54.70
2023-04-04T02:51:14.142Z,54.70
2023-04-04T02:53:40.782Z,54.70
2023-04-04T02:56:07.596Z,54.70
2023-04-04T02:58:34.885Z,54.60
2023-04-04T03:01:01.565Z,54.60
2023-04-04T03:03:28.430Z,54.70
2023-04-04T03:05:55.191Z,54.60
2023-04-04T03:08:22.438Z,54.60
2023-04-04T03:10:49.121Z,54.60
2023-04-04T03:13:15.732Z,54.50
2023-04-04T03:15:43.729Z,54.50
2023-04-04T03:18:14.194Z,54.50
2023-04-04T03:20:41.010Z,54.50
2023-04-04T03:23:07.893Z,54.50
2023-04-04T03:25:34.514Z,54.40
2023-04-04T03:28:11.221Z,54.50
2023-04-04T03:30:38.214Z,54.40
2023-04-04T03:33:07.603Z,54.30
2023-04-04T03:35:41.725Z,54.50
2023-04-04T03:38:09.492Z,54.40
2023-04-04T03:40:36.773Z,54.50
2023-04-04T03:43:03.390Z,54.40
2023-04-04T03:45:30.236Z,54.40
2023-04-04T03:47:56.977Z,54.90
2023-04-04T03:50:23.621Z,54.30
2023-04-04T03:52:50.623Z,54.30
2023-04-04T03:55:17.411Z,54.30
2023-04-04T03:57:44.183Z,54.20
2023-04-04T04:00:12.078Z,54.20
2023-04-04T04:02:38.946Z,54.10
2023-04-04T04:05:06.032Z,53.60
2023-04-04T04:07:32.734Z,54.10
2023-04-04T04:09:59.468Z,54.10
2023-04-04T04:12:26.202Z,54.10
2023-04-04T04:14:52.987Z,43.60
2023-04-04T04:17:19.842Z,36.40
2023-04-04T04:19:46.669Z,38.90
2023-04-04T04:22:13.305Z,42.20
2023-04-04T04:24:39.947Z,44.60
2023-04-04T04:27:06.894Z,43.50
2023-04-04T04:29:33.491Z,44.90
2023-04-04T04:32:00.916Z,45.40
2023-04-04T04:34:31.044Z,46.00
2023-04-04T04:36:57.904Z,46.40
2023-04-04T04:39:24.874Z,46.70
2023-04-04T04:41:51.530Z,46.80
2023-04-04T04:44:18.180Z,47.10
2023-04-04T04:46:44.837Z,47.50
2023-04-04T04:49:11.753Z,47.90
2023-04-04T04:51:38.746Z,48.00
2023-04-04T04:54:05.396Z,48.40
2023-04-04T04:56:31.963Z,47.90
2023-04-04T04:58:58.622Z,48.50
2023-04-04T05:01:25.623Z,48.70
2023-04-04T05:03:53.492Z,49.00
2023-04-04T05:06:20.603Z,48.60
2023-04-04T05:08:47.269Z,49.20
2023-04-04T05:11:13.840Z,49.30
2023-04-04T05:13:40.966Z,49.50
2023-04-04T05:16:07.843Z,49.60
2023-04-04T05:18:34.492Z,50.20
2023-04-04T05:21:01.129Z,50.40
2023-04-04T05:23:27.749Z,50.60
2023-04-04T05:25:54.413Z,50.80
2023-04-04T05:28:21.398Z,51.00
2023-04-04T05:30:48.035Z,50.30
2023-04-04T05:33:14.804Z,50.60
2023-04-04T05:35:41.612Z,50.20
2023-04-04T05:38:08.504Z,50.70
2023-04-04T05:40:35.221Z,50.80
2023-04-04T05:43:04.110Z,51.00
2023-04-04T05:45:31.567Z,50.50
2023-04-04T05:47:58.266Z,51.10
2023-04-04T05:50:25.399Z,51.20
2023-04-04T05:52:55.135Z,51.00
2023-04-04T05:55:23.157Z,50.90
2023-04-04T05:57:51.108Z,51.00
2023-04-04T06:00:19.383Z,51.00
2023-04-04T06:02:46.129Z,51.00
2023-04-04T06:05:12.807Z,51.80
2023-04-04T06:07:39.563Z,51.20
2023-04-04T06:10:07.277Z,51.20
2023-04-04T06:12:33.863Z,51.30
2023-04-04T06:15:00.696Z,51.40
2023-04-04T06:17:27.342Z,51.50
2023-04-04T06:19:55.138Z,51.40
2023-04-04T06:22:21.868Z,51.60
2023-04-04T06:24:48.509Z,51.90
2023-04-04T06:27:15.180Z,51.80
2023-04-04T06:29:42.673Z,51.70
2023-04-04T06:32:09.426Z,52.40
2023-04-04T06:34:36.014Z,51.80
2023-04-04T06:37:03.445Z,52.20
2023-04-04T06:39:31.331Z,52.30
2023-04-04T06:44:25.104Z,51.90
2023-04-04T06:46:51.886Z,52.10
2023-04-04T06:49:18.511Z,52.50
2023-04-04T06:51:45.285Z,52.60
2023-04-04T06:54:11.907Z,52.50
2023-04-04T06:56:38.716Z,52.60
2023-04-04T06:59:05.350Z,52.50
2023-04-04T07:01:34.065Z,52.60
2023-04-04T07:04:00.730Z,52.90
2023-04-04T07:06:29.589Z,52.30
2023-04-04T07:08:56.434Z,52.80
2023-04-04T07:11:23.986Z,52.70
2023-04-04T07:13:50.716Z,52.80
2023-04-04T07:16:17.459Z,52.30
2023-04-04T07:18:44.293Z,52.80
2023-04-04T07:21:10.857Z,52.80
2023-04-04T07:23:37.480Z,52.90
2023-04-04T07:26:04.168Z,52.90
2023-04-04T07:28:31.203Z,52.90
2023-04-04T07:31:04.231Z,53.10
2023-04-04T07:33:31.065Z,53.00
2023-04-04T07:35:57.892Z,53.10
2023-04-04T07:38:24.542Z,53.30
2023-04-04T07:40:51.294Z,53.10
2023-04-04T07:43:17.928Z,53.40
2023-04-04T07:45:44.708Z,52.90
2023-04-04T07:48:11.428Z,53.40
2023-04-04T07:50:38.420Z,53.40
2023-04-04T07:53:05.214Z,53.60
2023-04-04T07:55:31.836Z,41.60
2023-04-04T07:57:58.506Z,48.50
2023-04-04T08:00:26.412Z,50.90
2023-04-04T08:02:54.461Z,50.30
2023-04-04T08:05:21.479Z,50.50
2023-04-04T08:07:48.242Z,50.60
2023-04-04T08:10:17.391Z,50.70
2023-04-04T08:12:44.978Z,50.80
2023-04-04T08:15:11.985Z,51.00
2023-04-04T08:17:38.875Z,51.60
2023-04-04T08:20:06.101Z,51.10
2023-04-04T08:22:33.620Z,51.10
2023-04-04T08:25:00.638Z,50.90
2023-04-04T08:27:27.560Z,51.50
2023-04-04T08:29:54.298Z,51.60
2023-04-04T08:32:20.896Z,51.70
2023-04-04T08:34:47.878Z,51.70
2023-04-04T08:37:14.725Z,51.80
2023-04-04T08:39:41.316Z,51.90
2023-04-04T08:42:09.337Z,52.00
2023-04-04T08:44:37.305Z,52.00
2023-04-04T08:47:05.515Z,52.20
2023-04-04T08:49:43.743Z,52.20
2023-04-04T08:52:12.735Z,52.30
2023-04-04T08:54:40.927Z,51.90
2023-04-04T08:57:08.255Z,52.00
2023-04-04T08:59:35.458Z,52.50
2023-04-04T09:02:17.519Z,52.70
2023-04-04T09:04:54.593Z,52.70
2023-04-04T09:07:31.034Z,52.80
2023-04-04T09:09:58.126Z,52.70
2023-04-04T09:12:25.777Z,53.00
2023-04-04T09:14:54.195Z,53.00
2023-04-04T09:17:21.040Z,52.90
2023-04-04T09:19:47.843Z,52.90
2023-04-04T09:22:15.896Z,53.70
2023-04-04T09:24:43.573Z,53.00
2023-04-04T09:27:11.908Z,53.20
2023-04-04T09:29:40.124Z,53.30
2023-04-04T09:32:21.721Z,53.50
2023-04-04T09:34:48.588Z,53.50
2023-04-04T09:37:17.472Z,53.50
2023-04-04T09:39:44.856Z,53.50
2023-04-04T09:42:12.234Z,53.60
2023-04-04T09:44:39.411Z,53.80
2023-04-04T09:47:31.969Z,53.40
2023-04-04T09:49:59.937Z,53.90
2023-04-04T09:52:26.921Z,54.00
2023-04-04T09:55:00.569Z,54.00
2023-04-04T09:57:35.102Z,54.00
2023-04-04T10:00:04.467Z,54.10
2023-04-04T10:02:31.317Z,54.10
2023-04-04T10:05:06.042Z,54.10
2023-04-04T10:07:34.049Z,54.10
2023-04-04T10:10:09.012Z,54.10
2023-04-04T10:12:37.704Z,54.20
2023-04-04T10:15:05.163Z,54.20
2023-04-04T10:17:40.814Z,54.30
2023-04-04T10:20:09.249Z,54.40
2023-04-04T10:22:37.745Z,54.40
2023-04-04T10:25:09.148Z,54.60
2023-04-04T10:27:38.479Z,54.80
2023-04-04T10:30:05.749Z,54.70
2023-04-04T10:32:49.465Z,54.80
2023-04-04T10:35:17.631Z,54.80
2023-04-04T10:37:52.615Z,54.80
2023-04-04T10:40:22.019Z,54.80
2023-04-04T10:42:50.754Z,54.80
2023-04-04T10:45:21.481Z,38.40
2023-04-04T10:47:48.963Z,40.40
2023-04-04T10:50:15.788Z,37.50
2023-04-04T10:52:44.435Z,34.50
2023-04-04T10:55:16.523Z,34.20
2023-04-04T10:57:51.680Z,34.70
2023-04-04T11:00:20.270Z,34.40
2023-04-04T11:02:58.480Z,33.00
2023-04-04T11:05:30.438Z,36.70
2023-04-04T11:10:31.760Z,40.70
2023-04-04T11:13:12.752Z,40.70
2023-04-04T11:16:00.790Z,41.50
2023-04-04T11:18:47.776Z,41.90
2023-04-04T11:21:24.669Z,42.60
2023-04-04T11:23:54.067Z,42.60
2023-04-04T11:26:26.537Z,43.30
2023-04-04T11:28:57.740Z,43.60
2023-04-04T11:31:29.983Z,43.70
2023-04-04T11:34:07.802Z,43.90
2023-04-04T11:36:40.220Z,44.00
2023-04-04T11:39:10.507Z,44.20
2023-04-04T11:42:14.072Z,44.30
2023-04-04T11:45:02.041Z,44.50
2023-04-04T11:47:30.647Z,44.60
2023-04-04T11:49:58.695Z,44.70
2023-04-04T11:52:25.415Z,44.80
2023-04-04T11:54:52.653Z,45.10
2023-04-04T11:57:21.107Z,44.90
2023-04-04T11:59:49.610Z,45.50
2023-04-04T12:02:29.624Z,46.20
2023-04-04T12:04:57.190Z,46.80
2023-04-04T12:07:26.989Z,47.00
2023-04-04T12:09:54.998Z,47.30
2023-04-04T12:12:22.941Z,47.40
2023-04-04T12:14:49.687Z,47.40
2023-04-04T12:17:17.585Z,48.60
2023-04-04T12:19:44.738Z,47.90
2023-04-04T12:22:11.628Z,48.10
2023-04-04T12:24:38.461Z,48.20
2023-04-04T12:27:06.221Z,48.30
2023-04-04T12:29:37.464Z,48.40
2023-04-04T12:32:06.151Z,48.50
2023-04-04T12:34:37.425Z,48.60
2023-04-04T12:37:04.564Z,48.90
2023-04-04T12:39:31.857Z,48.90
2023-04-04T12:42:00.122Z,48.90
2023-04-04T12:44:30.279Z,49.00
2023-04-04T12:46:59.971Z,49.00
2023-04-04T12:49:32.298Z,49.20
2023-04-04T12:52:04.267Z,49.40
2023-04-04T12:54:32.867Z,49.60
2023-04-04T12:57:03.978Z,49.90
2023-04-04T12:59:32.200Z,50.20
2023-04-04T13:02:01.354Z,50.00
2023-04-04T13:04:28.263Z,49.90
2023-04-04T13:06:55.001Z,49.80
2023-04-04T13:09:23.365Z,49.70
2023-04-04T13:12:03.410Z,49.60
2023-04-04T13:14:59.047Z,50.20
2023-04-04T13:17:27.020Z,50.30
2023-04-04T13:19:53.806Z,50.40
2023-04-04T13:22:20.514Z,50.40
2023-04-04T13:24:47.151Z,43.10
2023-04-04T13:27:13.770Z,43.20
2023-04-04T13:29:40.547Z,48.10
2023-04-04T13:32:07.192Z,47.50
2023-04-04T13:34:35.898Z,46.90
2023-04-04T13:37:02.621Z,47.00
2023-04-04T13:39:29.305Z,47.10
2023-04-04T13:41:57.262Z,47.30
2023-04-04T13:44:25.392Z,47.40
2023-04-04T13:46:53.649Z,47.70
2023-04-04T13:49:20.303Z,47.90
2023-04-04T13:51:47.777Z,48.40
2023-04-04T13:54:14.391Z,48.40
2023-04-04T13:56:41.123Z,48.40
2023-04-04T13:59:08.070Z,48.60
2023-04-04T14:01:34.734Z,48.80
2023-04-04T14:04:07.421Z,49.10
2023-04-04T14:06:39.901Z,49.20
2023-04-04T14:09:07.348Z,49.20
2023-04-04T14:11:34.530Z,49.20
2023-04-04T14:14:01.128Z,49.30
2023-04-04T14:16:27.725Z,49.50
2023-04-04T14:18:54.337Z,49.80
2023-04-04T14:21:21.267Z,50.00
2023-04-04T14:23:47.864Z,50.10
2023-04-04T14:26:14.448Z,39.40
2023-04-04T14:28:41.213Z,39.10
2023-04-04T14:31:08.223Z,36.70
2023-04-04T14:33:35.007Z,37.30
2023-04-04T14:36:01.631Z,41.30
2023-04-04T14:38:28.279Z,43.90
2023-04-04T14:40:54.940Z,43.30
2023-04-04T14:43:21.633Z,43.40
2023-04-04T14:45:48.383Z,43.20
2023-04-04T14:48:14.985Z,43.70
2023-04-04T14:50:42.731Z,43.90
2023-04-04T14:53:09.593Z,44.10
2023-04-04T14:55:36.334Z,44.30
2023-04-04T14:58:03.281Z,44.60
2023-04-04T15:00:31.034Z,46.50
2023-04-04T15:02:57.778Z,46.10
2023-04-04T15:05:25.228Z,46.70
2023-04-04T15:07:51.955Z,47.20
2023-04-04T15:10:18.831Z,47.40
2023-04-04T15:12:45.695Z,47.90
2023-04-04T15:15:13.248Z,48.10
2023-04-04T15:17:41.740Z,48.50
2023-04-04T15:20:09.395Z,49.20
2023-04-04T15:22:36.279Z,49.10
2023-04-04T15:25:03.032Z,49.10
2023-04-04T15:27:29.638Z,49.00
2023-04-04T15:29:56.218Z,48.80
2023-04-04T15:32:22.861Z,48.60
2023-04-04T15:34:49.626Z,48.60
2023-04-04T15:37:16.844Z,48.60
2023-04-04T15:39:52.384Z,48.50
2023-04-04T15:42:20.585Z,48.50
2023-04-04T15:44:47.356Z,48.50
2023-04-04T15:47:15.679Z,48.50
2023-04-04T15:49:42.256Z,48.50
2023-04-04T15:52:08.841Z,48.40
2023-04-04T15:54:35.515Z,48.40
2023-04-04T15:57:03.285Z,48.30
2023-04-04T15:59:31.810Z,48.30
2023-04-04T16:01:59.464Z,48.30
2023-04-04T16:04:26.238Z,48.40
2023-04-04T16:06:52.870Z,47.90
2023-04-04T16:09:21.152Z,48.60
2023-04-04T16:11:47.911Z,48.60
2023-04-04T16:14:14.581Z,48.60
2023-04-04T16:16:41.487Z,48.60
2023-04-04T16:19:08.418Z,48.60
2023-04-04T16:21:35.123Z,48.70
2023-04-04T16:24:05.391Z,48.70
2023-04-04T16:26:32.367Z,48.30
2023-04-04T16:28:59.003Z,49.10
2023-04-04T16:31:25.820Z,49.80
2023-04-04T16:33:52.428Z,49.80
2023-04-04T16:36:19.146Z,50.10
2023-04-04T16:38:45.998Z,50.40
2023-04-04T16:41:12.867Z,50.50
2023-04-04T16:43:39.565Z,50.30
2023-04-04T16:46:06.214Z,50.20
2023-04-04T16:48:32.856Z,50.70
2023-04-04T16:50:59.472Z,50.90
2023-04-04T16:53:26.067Z,50.80
2023-04-04T16:55:52.757Z,50.60
2023-04-04T16:58:19.616Z,50.60
2023-04-04T17:00:46.314Z,50.70
2023-04-04T17:03:12.997Z,50.60
2023-04-04T17:05:39.761Z,38.50
2023-04-04T17:08:07.193Z,37.30
2023-04-04T17:10:34.288Z,37.20
2023-04-04T17:13:00.958Z,40.00
2023-04-04T17:15:28.331Z,41.90
2023-04-04T17:17:55.015Z,44.00
2023-04-04T17:20:21.820Z,43.90
2023-04-04T17:22:49.669Z,43.60
2023-04-04T17:25:16.371Z,43.80
2023-04-04T17:27:43.170Z,43.90
2023-04-04T17:30:10.840Z,44.30
2023-04-04T17:32:37.539Z,44.30
2023-04-04T17:35:05.202Z,44.30
2023-04-04T17:37:31.875Z,44.00
2023-04-04T17:39:59.889Z,44.60
2023-04-04T17:42:27.080Z,44.80
2023-04-04T17:44:53.658Z,44.90
2023-04-04T17:47:21.075Z,45.10
2023-04-04T17:49:47.678Z,45.10
2023-04-04T17:52:18.875Z,45.30
2023-04-04T17:54:47.787Z,45.50
2023-04-04T17:57:15.113Z,45.50
2023-04-04T17:59:41.999Z,46.60
2023-04-04T18:02:08.793Z,47.10
2023-04-04T18:04:35.439Z,47.30
2023-04-04T18:07:02.120Z,47.30
2023-04-04T18:09:29.042Z,47.30
2023-04-04T18:11:55.756Z,47.40
2023-04-04T18:14:22.519Z,47.50
2023-04-04T18:16:49.455Z,47.60
2023-04-04T18:19:16.061Z,47.70
2023-04-04T18:21:43.163Z,47.80
2023-04-04T18:24:11.643Z,47.90
2023-04-04T18:26:38.721Z,48.00
2023-04-04T18:29:05.365Z,48.10
2023-04-04T18:31:32.161Z,48.20
2023-04-04T18:33:58.888Z,48.30
2023-04-04T18:36:26.610Z,48.00
2023-04-04T18:38:53.529Z,48.70
2023-04-04T18:41:20.269Z,48.70
2023-04-04T18:43:46.952Z,48.70
2023-04-04T18:46:13.591Z,48.20
2023-04-04T18:48:41.367Z,48.80
2023-04-04T18:51:08.785Z,48.90
2023-04-04T18:53:35.526Z,49.00
2023-04-04T18:56:02.141Z,49.30
2023-04-04T18:58:28.805Z,49.30
2023-04-04T19:00:58.344Z,49.70
2023-04-04T19:03:25.854Z,49.90
2023-04-04T19:05:53.637Z,49.90
2023-04-04T19:08:20.350Z,50.10
2023-04-04T19:10:50.665Z,50.10
2023-04-04T19:13:17.823Z,50.10
2023-04-04T19:15:44.665Z,50.10
2023-04-04T19:18:11.641Z,50.20
2023-04-04T19:20:38.436Z,50.30
2023-04-04T19:23:05.072Z,50.30
2023-04-04T19:25:31.703Z,50.40
2023-04-04T19:27:58.377Z,50.40
2023-04-04T19:30:42.153Z,50.30
2023-04-04T19:33:13.312Z,50.40
2023-04-04T19:35:47.934Z,50.40
2023-04-04T19:38:21.057Z,50.50
2023-04-04T19:40:49.676Z,50.50
2023-04-04T19:43:21.261Z,50.50
2023-04-04T19:45:52.419Z,50.50
2023-04-04T19:48:55.085Z,50.50
2023-04-04T19:51:21.629Z,50.40
2023-04-04T19:53:50.525Z,50.60
2023-04-04T19:56:18.454Z,50.80
2023-04-04T19:58:45.466Z,50.60
2023-04-04T20:01:20.587Z,50.60
2023-04-04T20:03:48.642Z,50.60
2023-04-04T20:06:29.043Z,50.60
2023-04-04T20:09:00.293Z,50.70
2023-04-04T20:11:35.421Z,50.60
2023-04-04T20:14:05.634Z,50.50
2023-04-04T20:16:33.264Z,50.50
2023-04-04T20:19:02.052Z,50.60
2023-04-04T20:21:31.441Z,50.50
2023-04-04T20:24:07.911Z,50.60
2023-04-04T20:26:40.397Z,50.00
2023-04-04T20:29:08.122Z,50.50
2023-04-04T20:31:40.784Z,50.50
2023-04-04T20:34:29.432Z,50.40
2023-04-04T20:36:56.198Z,50.40
2023-04-04T20:39:46.883Z,50.40
2023-04-04T20:42:36.199Z,50.40
2023-04-04T20:45:17.327Z,50.40
2023-04-04T20:47:49.101Z,49.90
2023-04-04T20:50:19.015Z,50.40
2023-04-04T20:52:46.471Z,50.40
2023-04-04T20:55:13.596Z,50.30
2023-04-04T20:57:40.370Z,50.30
2023-04-04T21:00:33.770Z,50.20
2023-04-04T21:03:09.448Z,50.30
2023-04-04T21:05:38.687Z,49.70
2023-04-04T21:08:31.313Z,50.30
2023-04-04T21:10:57.991Z,50.20
2023-04-04T21:13:41.540Z,50.30
2023-04-04T21:16:10.988Z,50.10
2023-04-04T21:18:39.171Z,50.20
2023-04-04T21:21:19.022Z,50.20
2023-04-04T21:23:47.009Z,50.10
2023-04-04T21:26:37.379Z,49.60
2023-04-04T21:29:08.007Z,50.10
2023-04-04T21:31:39.889Z,50.10
2023-04-04T21:34:11.567Z,50.10
2023-04-04T21:36:38.912Z,50.10
2023-04-04T21:39:10.814Z,50.10
2023-04-04T21:41:37.644Z,50.10
2023-04-04T21:44:06.721Z,50.10
2023-04-04T21:46:38.385Z,49.70
2023-04-04T21:49:06.749Z,50.10
2023-04-04T21:51:34.324Z,50.10
2023-04-04T21:54:01.598Z,50.10
2023-04-04T21:56:31.302Z,50.00
2023-04-04T21:59:02.903Z,50.00
2023-04-04T22:01:30.547Z,50.00
2023-04-04T22:03:58.127Z,50.10
2023-04-04T22:06:26.144Z,50.00
2023-04-04T22:08:54.620Z,50.00
2023-04-04T22:11:21.579Z,50.00
2023-04-04T22:13:50.057Z,50.00
2023-04-04T22:16:18.602Z,49.50
2023-04-04T22:18:47.585Z,50.00
2023-04-04T22:21:15.535Z,50.00
2023-04-04T22:23:42.714Z,49.90
2023-04-04T22:26:13.689Z,49.90
2023-04-04T22:28:41.892Z,50.00
2023-04-04T22:31:08.879Z,49.90
2023-04-04T22:33:35.509Z,49.90
2023-04-04T22:36:02.645Z,49.90
2023-04-04T22:38:29.850Z,50.00
2023-04-04T22:40:57.706Z,49.90
2023-04-04T22:43:28.369Z,49.90
2023-04-04T22:45:55.332Z,49.40
2023-04-04T22:48:25.122Z,49.90
2023-04-04T22:50:55.604Z,49.90
2023-04-04T22:53:25.740Z,50.00
2023-04-04T22:55:53.907Z,49.90
2023-04-04T22:58:21.489Z,49.90
2023-04-04T23:00:48.314Z,49.80
2023-04-04T23:03:15.837Z,49.90
2023-04-04T23:05:42.674Z,49.80
2023-04-04T23:08:09.332Z,49.80
2023-04-04T23:10:36.678Z,49.80
2023-04-04T23:13:03.359Z,49.90
2023-04-04T23:15:32.152Z,49.90
2023-04-04T23:17:58.971Z,49.90
2023-04-04T23:20:25.689Z,49.90
2023-04-04T23:22:52.801Z,49.90
2023-04-04T23:25:19.511Z,49.90
2023-04-04T23:27:46.242Z,49.90
2023-04-04T23:30:13.086Z,49.90
2023-04-04T23:32:39.798Z,49.90
2023-04-04T23:35:06.669Z,49.80
2023-04-04T23:37:33.295Z,49.90
2023-04-04T23:39:59.896Z,49.80
2023-04-04T23:42:26.492Z,49.80
2023-04-04T23:44:53.125Z,49.80
2023-04-04T23:47:20.799Z,49.80
2023-04-04T23:49:47.385Z,49.80
2023-04-04T23:52:14.102Z,49.80
2023-04-04T23:54:40.730Z,49.80
2023-04-04T23:57:07.325Z,49.80
2023-04-04T23:59:34.016Z,49.90
